Capitol Logistics 262


KBOS
Logan International Airport
Boston, Massachusetts, US
KMCI
Kansas City International Airport
Kansas City, Missouri, US

Route Details

Aircraft Information
Primary: Boeing 767-300BDSF
Backup: Boeing 757-200SF
Route Data
Distance: 1090nm
Sched. Duration: 3h 45m
Avg. Duration: 3h 25m (-19m)
Times Flown: 7
Recm'd Route: HYLND5 HYLND CAM Q822 GONZZ Q29 DORET DJB J60 JOT J26 IRK BQS6
Planned Altitude: 36,000ft
Origin Wx: KBOS 160754Z 08009KT 10SM BKN022 OVC035 04/02 A2991 RMK AO2 SLP127 T00440022 $
Dest. Wx: KMCI 160753Z 31011KT 10SM OVC014 00/M03 A2987 RMK AO2 SLP123 T00001028
Notes: METROAIR CARGO SUPPORT

Financial History
Total Freight: 630,951lbs
Average Load: 90,136lbs/flt
Fuel Used: 249,501lbs
Avg. Fuel Used: 35,643lbs/flt
Fuel Expense: $294,411
Avg. Fuel Expense: $42,059
Avg. Fuel Cost: $1.18/lbs
Total Gross Income: $858,785
Pilot Pay: $1,543
Total Expenses: $93,113
Total Revenue: $465,252
Average Revenue: $122,683.60